NCAR-RAP Real-Time Weather Data

Output produced by METARs form (26 May 2022  08:53 UTC)
found at http://weather.rap.ucar.edu/surface/
 
KSAC 260753Z AUTO VRB04KT CLR 19/09 A2976 RMK AO2 SLP077 T01890094 403890167 $
KSAC 260653Z AUTO 20007KT 10SM CLR 21/09 A2975 RMK AO2 SLP075 T02060094 $
KSAC 260553Z AUTO 20009KT 10SM CLR 23/10 A2974 RMK AO2 SLP071 T02280100 10383 20228 51016 $
KSAC 260453Z AUTO 21008KT 10SM CLR 26/10 A2973 RMK AO2 SLP067 T02560100 $
KSAC 260353Z AUTO 21008KT 10SM CLR 28/11 A2971 RMK AO2 SLP061 T02780106 $
KSAC 260253Z AUTO 21011KT 10SM CLR 31/12 A2970 RMK AO2 SLP055 T03110122 55004 $
KSAC 260153Z AUTO 21008KT 10SM CLR 34/13 A2969 RMK AO2 SLP054 T03440128 $
KSAC 260053Z AUTO 23007KT 10SM CLR 38/08 A2970 RMK AO2 SLP056 T03780083 $
KSAC 252353Z 26006KT 10SM CLR 39/07 A2971 RMK AO2 SLP060 T03890072 10389 20317 58017 $
KSAC 252253Z 34004KT 10SM CLR 39/06 A2972 RMK AO2 SLP065 T03890056 $
KSAC 252153Z VRB05KT 10SM CLR 38/06 A2974 RMK AO2 SLP072 T03780061 $
KSAC 252053Z VRB05KT 10SM CLR 36/08 A2976 RMK AO2 SLP076 T03610083 58017 $
KSAC 251953Z VRB04KT 10SM CLR 35/08 A2978 RMK AO2 SLP084 T03500078 $
KSAC 251853Z 00000KT 10SM CLR 33/08 A2979 RMK AO2 SLP088 T03330078 $
KSAC 251753Z VRB05KT 10SM CLR 31/10 A2981 RMK AO2 SLP093 T03110100 10317 20172 50004
KSAC 251653Z 28004KT 10SM CLR 30/09 A2981 RMK AO2 SLP094 T03000089
KSAC 251553Z AUTO 31006KT CLR 28/09 A2981 RMK AO2 SLP092 T02830089 $
KSAC 251453Z AUTO 00000KT CLR 25/12 A2980 RMK AO2 SLP089 T02500117 53013 $
KSAC 251353Z AUTO 00000KT 10SM CLR 21/11 A2978 RMK AO2 SLP084 T02110106
KSAC 251253Z AUTO 03003KT 10SM CLR 19/08 A2977 RMK AO2 SLP080 T01890083 $
KSAC 251153Z AUTO 04006KT 10SM CLR 18/11 A2976 RMK AO2 SLP077 T01780106 10239 20167 53008 /
KSAC 251053Z AUTO 00000KT 10SM CLR 17/11 A2974 RMK AO2 SLP071 T01720111 $
KSAC 250953Z AUTO 00000KT 10SM CLR 18/11 A2974 RMK AO2 SLP069 T01830111 $
KSAC 250853Z AUTO 00000KT 10SM CLR 19/11 A2974 RMK AO2 SLP069 T01940111 56006 $
KSAC 250753Z AUTO 00000KT 10SM CLR 21/11 A2974 RMK AO2 SLP071 T02110106 403780144 $
KSAC 250653Z AUTO 00000KT 10SM CLR 22/11 A2975 RMK AO2 SLP073 T02220111 $
KSAC 250553Z AUTO 21004KT 10SM CLR 22/12 A2975 RMK AO2 SLP075 T02170122 10372 20217 51008 $
KSAC 250453Z AUTO 00000KT 10SM CLR 24/09 A2975 RMK AO2 SLP074 T02440094 $
KSAC 250353Z AUTO 00000KT 10SM CLR 27/07 A2974 RMK AO2 SLP071 T02670072 $
KSAC 250253Z AUTO 01005KT 10SM 32/03 A2973 RMK AO2 SLP068 T03220028 $
KSAC 250153Z AUTO 35008KT 10SM CLR 36/01 A2973 RMK AO2 SLP068 T03560011 $
KSAC 250053Z AUTO 32010KT 10SM CLR 37/M01 A2974 RMK AO2 SLP069 T03671006 $
KSAC 242353Z 34010KT 10SM CLR 37/M02 A2975 RMK AO2 SLP073 T03721022 10378 20300 56017 $
KSAC 242253Z 31008G19KT 10SM CLR 37/M05 A2976 RMK AO2 SLP076 T03721050
KSAC 242153Z 31013G17KT 10SM CLR 37/M05 A2978 RMK AO2 SLP084 T03721050
KSAC 242053Z 34011G18KT 10SM CLR 36/M02 A2980 RMK AO2 SLP089 T03611022 58014
KSAC 241953Z 32011G16KT 10SM CLR 34/02 A2982 RMK AO2 SLP096 T03440022 $
KSAC 241853Z 34012KT 10SM CLR 33/03 A2982 RMK AO2 SLP099 T03330028 $
KSAC 241753Z 30011KT 10SM CLR 31/04 A2984 RMK AO2 SLP103 T03060044 10306 20144 50000 $
KSAC 241653Z 34007KT 10SM CLR 28/06 A2985 RMK AO2 SLP106 T02780061 $
KSAC 241553Z AUTO 33009KT CLR 25/06 A2985 RMK AO2 SLP106 T02500061 $
KSAC 241453Z AUTO 33009KT 10SM CLR 23/06 A2984 RMK AO2 SLP103 T02330056 53010
KSAC 241353Z AUTO 00000KT 10SM CLR 17/12 A2982 RMK AO2 SLP096 T01720117
KSAC 241253Z AUTO 00000KT CLR 15/11 A2980 RMK AO2 SLP091 T01500111 $
KSAC 241153Z AUTO 35004KT 10SM CLR 18/11 A2981 RMK AO2 SLP092 T01830106 10194 20150 53005 $
KSAC 241053Z AUTO 31006KT 10SM CLR 19/08 A2979 RMK AO2 SLP086 T01890078 $
KSAC 240953Z AUTO 31003KT 10SM CLR 17/09 A2978 RMK AO2 SLP085 T01720089 $